Time;durP1;ratioP1;P1;durP2;ratioP2;P2;SDS_P1;SDS_P2;PMS_P1;PMS_P2;Temp;Humidity;BMP_temperature;BMP_pressure;BME280_temperature;BME280_humidity;BME280_pressure;Samples;Min_cycle;Max_cycle;Signal;HPM_P1;HPM_P2
2022/10/27 00:00:38;;;;;;;32.63;21.38;;;12.40;99.90;;;;;;5066889;28;20036;-74
2022/10/27 00:03:05;;;;;;;30.42;20.17;;;12.20;99.90;;;;;;5068797;28;20055;-74
2022/10/27 00:05:32;;;;;;;31.83;18.75;;;12.20;99.90;;;;;;5070678;28;20024;-73
2022/10/27 00:07:58;;;;;;;31.45;19.25;;;12.20;99.90;;;;;;5070913;28;20077;-75
2022/10/27 00:10:24;;;;;;;32.95;18.02;;;12.10;99.90;;;;;;5070751;28;20016;-74
2022/10/27 00:12:49;;;;;;;30.98;18.17;;;12.10;99.90;;;;;;5070856;28;20027;-74
2022/10/27 00:15:15;;;;;;;33.30;17.98;;;12.00;99.90;;;;;;5070671;28;20514;-75
2022/10/27 00:17:42;;;;;;;33.28;18.20;;;12.00;99.90;;;;;;5069326;28;20021;-75
2022/10/27 00:20:08;;;;;;;23.52;16.27;;;12.00;99.90;;;;;;5067291;28;20032;-76
2022/10/27 00:22:35;;;;;;;27.60;16.65;;;11.90;99.90;;;;;;5071148;28;20032;-73
2022/10/27 00:25:01;;;;;;;25.60;16.45;;;11.80;99.90;;;;;;5070539;28;20024;-76
2022/10/27 00:27:27;;;;;;;24.48;17.90;;;11.80;99.90;;;;;;5067029;28;20056;-73
2022/10/27 00:29:53;;;;;;;37.40;22.80;;;11.80;99.90;;;;;;5071036;28;20017;-75
2022/10/27 00:32:19;;;;;;;31.00;19.63;;;11.80;99.90;;;;;;5070442;28;20059;-72
2022/10/27 00:34:45;;;;;;;45.17;28.08;;;11.80;99.90;;;;;;5070688;28;20408;-73
2022/10/27 00:37:11;;;;;;;68.97;48.67;;;11.90;99.90;;;;;;5068545;28;20049;-73
2022/10/27 00:39:37;;;;;;;36.03;25.48;;;11.90;99.90;;;;;;5070667;28;20033;-73
2022/10/27 00:42:03;;;;;;;38.83;24.35;;;11.80;99.90;;;;;;5070693;28;20029;-72
2022/10/27 00:44:45;;;;;;;32.97;20.27;;;11.70;99.90;;;;;;5070555;28;20033;-74
2022/10/27 00:47:32;;;;;;;34.03;21.92;;;11.80;99.90;;;;;;5070681;28;20025;-73
2022/10/27 00:50:11;;;;;;;31.65;19.98;;;11.80;99.90;;;;;;5071079;28;20139;-76
2022/10/27 00:52:49;;;;;;;32.58;18.48;;;11.80;99.90;;;;;;5070657;28;20044;-73
2022/10/27 00:55:21;;;;;;;30.15;18.10;;;11.80;99.90;;;;;;5070974;28;20043;-74
2022/10/27 00:57:50;;;;;;;26.83;17.00;;;11.80;99.90;;;;;;5063764;28;20075;-72
2022/10/27 01:00:17;;;;;;;26.13;18.13;;;11.80;99.90;;;;;;5070816;28;20070;-73
2022/10/27 01:02:43;;;;;;;30.45;19.17;;;11.80;99.90;;;;;;5070405;28;20027;-74
2022/10/27 01:05:12;;;;;;;27.35;18.52;;;11.80;99.90;;;;;;5066740;28;20378;-73
2022/10/27 01:07:41;;;;;;;26.33;16.38;;;11.70;99.90;;;;;;5060763;28;20121;-73
2022/10/27 01:10:07;;;;;;;31.35;21.88;;;11.70;99.90;;;;;;5072114;28;20127;-75
2022/10/27 01:12:33;;;;;;;32.03;19.80;;;11.70;99.90;;;;;;5074081;28;20020;-74
2022/10/27 01:14:59;;;;;;;34.40;19.98;;;11.70;99.90;;;;;;5074375;28;20423;-73
2022/10/27 01:17:55;;;;;;;28.50;20.27;;;11.70;99.90;;;;;;5074306;28;20028;-73
2022/10/27 01:20:33;;;;;;;40.83;26.77;;;11.60;99.90;;;;;;5073030;28;20486;-75
2022/10/27 01:23:02;;;;;;;47.58;30.15;;;11.60;99.90;;;;;;5072702;28;20035;-73
2022/10/27 01:26:21;;;;;;;51.17;29.95;;;11.50;99.90;;;;;;5072878;28;20078;-74
2022/10/27 01:29:05;;;;;;;42.92;26.23;;;11.60;99.90;;;;;;5070056;28;20064;-74
2022/10/27 01:31:38;;;;;;;43.08;27.02;;;11.60;99.90;;;;;;5070232;28;20390;-74
2022/10/27 01:34:15;;;;;;;40.67;27.15;;;11.60;99.90;;;;;;5070104;28;20063;-74
2022/10/27 01:36:59;;;;;;;41.80;26.70;;;11.50;99.90;;;;;;5069809;28;20095;-75
2022/10/27 01:39:35;;;;;;;38.90;23.67;;;11.50;99.90;;;;;;5067616;28;20040;-77
2022/10/27 01:42:11;;;;;;;35.40;22.48;;;11.50;99.90;;;;;;5070115;28;20514;-75
2022/10/27 01:44:45;;;;;;;36.95;20.83;;;11.50;99.90;;;;;;5069701;28;20041;-75
2022/10/27 01:47:12;;;;;;;41.35;25.13;;;11.40;99.90;;;;;;5069878;28;20108;-76
2022/10/27 01:49:40;;;;;;;34.47;23.00;;;11.30;99.90;;;;;;5070041;28;20039;-74
2022/10/27 01:52:27;;;;;;;38.88;24.50;;;11.20;99.90;;;;;;5070112;28;20075;-73
2022/10/27 01:54:55;;;;;;;34.13;22.10;;;11.20;99.90;;;;;;5069105;28;20025;-73
2022/10/27 01:57:53;;;;;;;34.92;22.83;;;11.10;99.90;;;;;;5069746;28;20020;-74
2022/10/27 02:00:19;;;;;;;34.03;21.25;;;11.00;99.90;;;;;;5028928;28;20033;-72
2022/10/27 02:02:53;;;;;;;31.27;21.00;;;10.90;99.90;;;;;;5017118;28;20719;-72
2022/10/27 02:05:42;;;;;;;34.97;20.83;;;10.90;99.90;;;;;;5009891;28;20064;-74
2022/10/27 02:08:26;;;;;;;33.83;21.23;;;10.90;99.90;;;;;;5011095;28;20041;-73
2022/10/27 02:11:05;;;;;;;33.72;23.20;;;10.90;99.90;;;;;;5008834;28;20048;-74
2022/10/27 02:13:34;;;;;;;35.25;21.95;;;10.90;99.90;;;;;;5009751;28;20122;-73
2022/10/27 02:16:05;;;;;;;35.35;21.60;;;10.90;99.90;;;;;;5009642;28;20060;-73
2022/10/27 02:18:49;;;;;;;36.25;20.33;;;10.80;99.90;;;;;;5005938;28;20096;-73
2022/10/27 02:21:16;;;;;;;31.83;19.58;;;10.80;99.90;;;;;;5009141;28;20117;-73
2022/10/27 02:23:42;;;;;;;30.27;20.90;;;10.80;99.90;;;;;;5009692;28;20037;-72
2022/10/27 02:26:43;;;;;;;35.05;21.65;;;10.60;99.90;;;;;;5009419;28;20104;-73
2022/10/27 02:29:29;;;;;;;32.35;18.55;;;10.60;99.90;;;;;;5008921;28;20500;-74
2022/10/27 02:31:58;;;;;;;33.05;22.05;;;10.60;99.90;;;;;;5008536;28;20125;-73
2022/10/27 02:34:25;;;;;;;37.83;20.48;;;10.60;99.90;;;;;;5009455;28;20488;-72
2022/10/27 02:36:50;;;;;;;37.60;21.70;;;10.60;99.90;;;;;;5027305;28;20052;-74
2022/10/27 02:39:16;;;;;;;36.95;20.33;;;10.60;99.90;;;;;;5071032;28;20047;-76
2022/10/27 02:41:42;;;;;;;39.20;22.42;;;10.50;99.90;;;;;;5071263;28;20028;-74
2022/10/27 02:44:08;;;;;;;34.17;22.23;;;10.50;99.90;;;;;;5071417;28;20458;-73
2022/10/27 02:46:34;;;;;;;29.42;20.10;;;10.60;99.90;;;;;;5071447;28;20039;-72
2022/10/27 02:48:59;;;;;;;33.72;20.95;;;10.60;99.90;;;;;;5071011;28;20017;-74
2022/10/27 02:51:25;;;;;;;32.22;22.10;;;10.60;99.90;;;;;;5071355;28;20034;-73
2022/10/27 02:53:51;;;;;;;32.88;20.00;;;10.70;99.90;;;;;;5066687;28;20023;-73
2022/10/27 02:56:17;;;;;;;30.83;18.60;;;10.70;99.90;;;;;;5071628;28;20067;-74
2022/10/27 02:58:42;;;;;;;41.42;23.52;;;10.80;99.90;;;;;;5070948;28;20389;-73
2022/10/27 03:01:08;;;;;;;29.33;20.55;;;10.80;99.90;;;;;;5070436;28;20494;-73
2022/10/27 03:03:34;;;;;;;40.90;21.27;;;10.80;99.90;;;;;;5070562;28;20051;-75
2022/10/27 03:06:00;;;;;;;40.08;22.10;;;10.90;99.90;;;;;;5070575;28;20383;-74
2022/10/27 03:08:26;;;;;;;37.13;22.55;;;10.90;99.90;;;;;;5070328;28;20020;-74
2022/10/27 03:10:51;;;;;;;37.50;22.95;;;10.90;99.90;;;;;;5070486;28;20727;-74
2022/10/27 03:13:17;;;;;;;32.25;21.80;;;10.90;99.90;;;;;;5070796;28;20106;-73
2022/10/27 03:15:44;;;;;;;35.97;20.60;;;10.90;99.90;;;;;;5067204;28;20361;-72
2022/10/27 03:18:10;;;;;;;38.42;21.60;;;11.00;99.90;;;;;;5070169;28;20036;-75
2022/10/27 03:20:36;;;;;;;36.25;21.60;;;10.90;99.90;;;;;;5070785;28;20466;-73
2022/10/27 03:23:02;;;;;;;35.08;21.05;;;10.90;99.90;;;;;;5070722;28;20115;-72
2022/10/27 03:25:28;;;;;;;33.63;19.88;;;10.90;99.90;;;;;;5067148;28;20414;-74
2022/10/27 03:27:53;;;;;;;34.63;19.45;;;10.80;99.90;;;;;;5062667;28;20024;-73
2022/10/27 03:30:20;;;;;;;32.95;18.92;;;10.80;99.90;;;;;;5068792;28;20089;-76
2022/10/27 03:32:50;;;;;;;34.13;20.77;;;10.80;99.90;;;;;;5069474;28;20024;-74
2022/10/27 03:35:18;;;;;;;32.05;19.75;;;10.70;99.90;;;;;;5070395;28;20068;-72
2022/10/27 03:37:44;;;;;;;33.13;19.88;;;10.60;99.90;;;;;;5069785;28;20167;-73
2022/10/27 03:40:11;;;;;;;27.88;18.67;;;10.60;99.90;;;;;;5065873;28;20021;-73
2022/10/27 03:42:41;;;;;;;36.67;22.52;;;10.50;99.90;;;;;;5070098;28;20032;-73
2022/10/27 03:45:09;;;;;;;33.03;20.77;;;10.60;99.90;;;;;;5069814;28;20082;-73
2022/10/27 03:47:34;;;;;;;38.50;23.15;;;10.50;99.90;;;;;;5070222;28;20058;-73
2022/10/27 03:50:00;;;;;;;30.02;20.98;;;10.40;99.90;;;;;;5069967;28;20020;-73
2022/10/27 03:52:26;;;;;;;33.17;20.58;;;10.30;99.90;;;;;;5070109;28;20060;-73
2022/10/27 03:54:52;;;;;;;33.45;21.60;;;10.10;99.90;;;;;;5068621;28;20028;-74
2022/10/27 03:57:18;;;;;;;35.15;22.58;;;10.10;99.90;;;;;;5070097;28;20052;-74
2022/10/27 03:59:43;;;;;;;38.63;26.85;;;10.10;99.90;;;;;;5069686;28;20093;-73
2022/10/27 04:02:09;;;;;;;40.08;24.85;;;10.10;99.90;;;;;;5068659;28;20110;-76
2022/10/27 04:04:35;;;;;;;33.67;22.75;;;10.20;99.90;;;;;;5069707;28;20037;-74
2022/10/27 04:07:01;;;;;;;33.33;22.48;;;10.10;99.90;;;;;;5070042;28;20017;-76
2022/10/27 04:09:26;;;;;;;34.53;23.33;;;10.10;99.90;;;;;;5069721;28;20032;-73
2022/10/27 04:11:52;;;;;;;34.45;21.73;;;10.20;99.90;;;;;;5069828;28;20021;-73
2022/10/27 04:14:18;;;;;;;36.25;21.60;;;10.30;99.90;;;;;;5069768;28;20438;-79
2022/10/27 04:16:44;;;;;;;28.73;20.90;;;10.40;99.90;;;;;;5065059;28;20036;-75
2022/10/27 04:19:10;;;;;;;34.45;23.00;;;10.40;99.90;;;;;;5064753;28;20047;-76
2022/10/27 04:21:36;;;;;;;36.00;25.40;;;10.50;99.90;;;;;;5068905;28;20024;-73
2022/10/27 04:24:01;;;;;;;38.90;23.05;;;10.50;99.90;;;;;;5069622;28;20032;-73
2022/10/27 04:26:27;;;;;;;33.80;22.08;;;10.60;99.90;;;;;;5068453;28;20391;-74
2022/10/27 04:28:53;;;;;;;30.77;22.42;;;10.70;99.90;;;;;;5069081;28;20020;-75
2022/10/27 04:31:19;;;;;;;34.63;20.60;;;10.70;99.90;;;;;;5069285;28;20119;-75
2022/10/27 04:33:45;;;;;;;40.22;21.45;;;10.80;99.90;;;;;;5069018;28;20036;-72
2022/10/27 04:36:10;;;;;;;31.02;20.27;;;10.90;99.90;;;;;;5069486;28;20423;-73
2022/10/27 04:38:37;;;;;;;31.02;19.77;;;10.90;99.90;;;;;;5069838;28;20044;-73
2022/10/27 04:41:03;;;;;;;24.73;18.42;;;11.00;99.90;;;;;;5069678;28;20474;-72
2022/10/27 04:43:29;;;;;;;34.15;20.08;;;11.10;99.90;;;;;;5070368;28;20029;-75
2022/10/27 04:45:55;;;;;;;31.63;19.08;;;11.10;99.90;;;;;;5073836;28;20012;-74
2022/10/27 04:48:21;;;;;;;28.50;17.55;;;11.20;99.90;;;;;;5073222;28;20501;-73
2022/10/27 04:50:46;;;;;;;29.98;18.10;;;11.20;99.90;;;;;;5073581;28;20238;-73
2022/10/27 04:53:12;;;;;;;28.55;18.50;;;11.20;99.90;;;;;;5073362;28;20017;-74
2022/10/27 04:55:38;;;;;;;28.45;15.85;;;11.20;99.90;;;;;;5073545;28;20013;-73
2022/10/27 04:58:04;;;;;;;29.77;17.75;;;11.30;99.90;;;;;;5072861;28;20494;-75
2022/10/27 05:00:30;;;;;;;29.60;17.63;;;11.30;99.90;;;;;;5073090;28;20389;-72
2022/10/27 05:02:57;;;;;;;29.83;18.95;;;11.20;99.90;;;;;;5073147;28;20036;-73
2022/10/27 05:05:25;;;;;;;34.60;21.30;;;11.10;99.90;;;;;;5069086;28;20471;-75
2022/10/27 05:08:02;;;;;;;33.30;20.23;;;11.00;99.90;;;;;;5072745;28;20381;-75
2022/10/27 05:10:30;;;;;;;32.33;22.15;;;11.00;99.90;;;;;;5078032;28;20059;-73
2022/10/27 05:12:56;;;;;;;33.25;20.95;;;11.00;99.90;;;;;;5071693;28;20021;-75
2022/10/27 05:15:23;;;;;;;36.47;21.25;;;11.10;99.90;;;;;;5072826;28;20024;-73
2022/10/27 05:17:49;;;;;;;28.75;18.92;;;11.10;99.90;;;;;;5072604;28;20021;-73
2022/10/27 05:20:15;;;;;;;35.65;21.42;;;11.10;99.90;;;;;;5068473;28;20089;-73
2022/10/27 05:22:40;;;;;;;29.08;18.23;;;11.20;99.90;;;;;;5072798;28;20020;-73
2022/10/27 05:25:08;;;;;;;26.77;18.02;;;11.20;99.90;;;;;;5073003;28;20551;-73
2022/10/27 05:27:34;;;;;;;29.83;17.13;;;11.20;99.90;;;;;;5073163;28;20039;-73
2022/10/27 05:30:00;;;;;;;27.42;16.98;;;11.20;99.90;;;;;;5072991;28;20036;-74
2022/10/27 05:32:26;;;;;;;29.70;18.67;;;11.30;99.90;;;;;;5072567;28;20092;-73
2022/10/27 05:34:51;;;;;;;31.73;20.05;;;11.20;99.90;;;;;;5072354;28;20032;-77
2022/10/27 05:37:17;;;;;;;33.00;21.63;;;11.20;99.90;;;;;;5072374;28;20119;-73
2022/10/27 05:39:43;;;;;;;41.58;25.30;;;11.20;99.90;;;;;;5072243;28;20436;-73
2022/10/27 05:42:09;;;;;;;38.75;25.55;;;11.20;99.90;;;;;;5071114;28;20032;-75
2022/10/27 05:44:35;;;;;;;43.20;26.40;;;11.30;99.90;;;;;;5072105;28;20086;-73
2022/10/27 05:47:00;;;;;;;54.92;33.50;;;11.40;99.90;;;;;;5072370;28;20056;-73
2022/10/27 05:49:26;;;;;;;64.72;37.10;;;11.50;99.90;;;;;;5072443;28;20107;-74
2022/10/27 05:51:52;;;;;;;58.25;38.92;;;11.50;99.90;;;;;;5072107;28;20040;-76
2022/10/27 05:54:18;;;;;;;52.97;33.47;;;11.60;99.90;;;;;;5072058;28;20025;-74
2022/10/27 05:56:44;;;;;;;47.40;26.55;;;11.70;99.90;;;;;;5071117;28;20091;-76
2022/10/27 05:59:11;;;;;;;40.10;26.45;;;11.70;99.90;;;;;;5072304;28;20447;-74
2022/10/27 06:01:37;;;;;;;49.58;29.02;;;11.80;99.90;;;;;;5072189;28;20046;-73
2022/10/27 06:04:03;;;;;;;41.10;26.42;;;11.80;99.90;;;;;;5071799;28;20498;-73
2022/10/27 06:06:29;;;;;;;40.53;25.48;;;11.90;99.90;;;;;;5071854;28;20474;-73
2022/10/27 06:08:54;;;;;;;40.45;26.05;;;12.00;99.90;;;;;;5071760;28;20116;-73
2022/10/27 06:11:20;;;;;;;38.70;25.42;;;12.10;99.90;;;;;;5071911;28;20487;-74
2022/10/27 06:13:50;;;;;;;36.88;22.30;;;12.10;99.90;;;;;;5071652;28;20470;-74
2022/10/27 06:16:20;;;;;;;38.75;24.15;;;12.20;99.90;;;;;;5071849;28;20016;-73
2022/10/27 06:18:46;;;;;;;46.33;24.45;;;12.20;99.90;;;;;;5067694;28;20107;-73
2022/10/27 06:21:12;;;;;;;39.95;24.92;;;12.20;99.90;;;;;;5070396;28;20021;-72
2022/10/27 06:23:40;;;;;;;35.00;24.40;;;12.40;99.90;;;;;;5071428;28;20420;-73
2022/10/27 06:26:07;;;;;;;39.92;22.35;;;12.40;99.90;;;;;;5071628;28;20029;-74
2022/10/27 06:28:33;;;;;;;36.95;24.40;;;12.50;99.90;;;;;;5069679;28;20090;-76
2022/10/27 06:30:59;;;;;;;33.65;22.23;;;12.60;99.90;;;;;;5070299;28;20467;-76
2022/10/27 06:33:24;;;;;;;39.13;22.33;;;12.60;99.90;;;;;;5070972;28;20021;-73
2022/10/27 06:35:50;;;;;;;34.30;23.05;;;12.70;99.90;;;;;;5071711;28;20035;-73
2022/10/27 06:38:17;;;;;;;31.70;20.30;;;12.70;99.90;;;;;;5069483;28;20443;-74
2022/10/27 06:40:43;;;;;;;29.42;19.30;;;12.70;99.90;;;;;;5071505;28;20029;-73
2022/10/27 06:43:12;;;;;;;30.35;19.35;;;12.70;99.90;;;;;;5071317;28;20020;-75
2022/10/27 06:45:39;;;;;;;31.40;19.77;;;12.70;99.90;;;;;;5067232;28;20039;-73
2022/10/27 06:48:07;;;;;;;30.98;20.83;;;12.80;99.90;;;;;;5070873;28;20550;-74
2022/10/27 06:50:34;;;;;;;31.05;21.23;;;12.90;99.90;;;;;;5070838;28;20111;-74
2022/10/27 06:53:01;;;;;;;25.17;18.92;;;13.10;99.90;;;;;;5071136;28;20494;-74
2022/10/27 06:55:27;;;;;;;29.85;21.27;;;13.20;99.90;;;;;;5067408;28;20024;-74
2022/10/27 06:57:53;;;;;;;32.90;19.27;;;13.30;99.90;;;;;;5070696;28;20479;-74
2022/10/27 07:00:19;;;;;;;29.48;19.40;;;13.30;99.90;;;;;;5070970;28;20033;-75
2022/10/27 07:02:45;;;;;;;29.88;18.13;;;13.20;99.90;;;;;;5070937;28;20467;-75
2022/10/27 07:05:11;;;;;;;25.30;18.13;;;13.30;99.90;;;;;;5070593;28;20425;-74
2022/10/27 07:07:37;;;;;;;27.90;18.30;;;13.30;99.90;;;;;;5069037;28;20079;-74
2022/10/27 07:10:05;;;;;;;29.23;17.98;;;13.30;99.90;;;;;;5070397;28;20032;-73
2022/10/27 07:12:31;;;;;;;30.27;18.08;;;13.50;99.90;;;;;;5066711;28;20021;-74
2022/10/27 07:14:57;;;;;;;30.15;19.27;;;13.50;99.90;;;;;;5070170;28;20037;-75
2022/10/27 07:17:23;;;;;;;25.00;17.05;;;13.60;99.90;;;;;;5069971;28;20048;-73
2022/10/27 07:19:49;;;;;;;27.52;20.15;;;13.60;99.90;;;;;;5070064;28;20029;-74
2022/10/27 07:22:15;;;;;;;25.60;17.10;;;13.70;99.90;;;;;;5070034;28;20103;-74
2022/10/27 07:24:41;;;;;;;28.67;16.80;;;13.60;99.90;;;;;;5070229;28;20024;-73
2022/10/27 07:27:06;;;;;;;27.98;19.65;;;13.60;99.90;;;;;;5070217;28;20070;-72
2022/10/27 07:29:32;;;;;;;24.90;16.25;;;13.50;99.90;;;;;;5070021;28;20040;-74
2022/10/27 07:31:58;;;;;;;22.67;16.95;;;13.80;99.90;;;;;;5070332;28;20016;-74
2022/10/27 07:34:24;;;;;;;27.00;17.40;;;13.80;99.90;;;;;;5070134;28;20020;-75
2022/10/27 07:36:49;;;;;;;28.10;17.13;;;13.80;99.90;;;;;;5070340;28;20377;-75
2022/10/27 07:39:15;;;;;;;24.63;17.58;;;13.80;99.90;;;;;;5069852;28;20395;-72
2022/10/27 07:41:41;;;;;;;27.45;17.55;;;13.90;99.90;;;;;;5069909;28;20035;-74
2022/10/27 07:44:07;;;;;;;29.75;18.75;;;14.00;99.90;;;;;;5068704;28;20386;-75
2022/10/27 07:46:33;;;;;;;26.40;18.10;;;14.10;99.90;;;;;;5070081;28;20032;-75
2022/10/27 07:49:02;;;;;;;27.45;17.10;;;14.20;99.90;;;;;;5068548;28;20044;-73
2022/10/27 07:51:28;;;;;;;26.65;17.70;;;14.40;99.90;;;;;;5070961;28;20025;-73
2022/10/27 07:53:54;;;;;;;24.15;16.85;;;14.50;99.90;;;;;;5069500;28;20028;-74
2022/10/27 07:56:20;;;;;;;28.05;18.48;;;14.70;99.90;;;;;;5069400;28;20462;-72
2022/10/27 07:58:49;;;;;;;26.58;17.42;;;14.80;99.90;;;;;;5069236;28;20554;-75
2022/10/27 08:01:14;;;;;;;27.13;18.23;;;14.80;99.90;;;;;;5069916;28;20021;-73
2022/10/27 08:03:40;;;;;;;29.05;18.45;;;14.80;99.90;;;;;;5069786;28;20032;-72
2022/10/27 08:06:06;;;;;;;25.48;18.08;;;14.90;99.90;;;;;;5069775;28;20074;-74
2022/10/27 08:08:32;;;;;;;24.83;18.38;;;15.10;99.90;;;;;;5069942;28;20040;-76
2022/10/27 08:10:58;;;;;;;26.80;17.88;;;15.20;99.90;;;;;;5069967;28;20070;-72
2022/10/27 08:13:24;;;;;;;23.88;17.58;;;15.30;99.90;;;;;;5069674;28;20017;-74
2022/10/27 08:15:50;;;;;;;25.05;18.58;;;15.20;99.90;;;;;;5069167;28;20016;-72
2022/10/27 08:18:16;;;;;;;27.65;18.23;;;15.30;99.90;;;;;;5069138;28;20111;-72
2022/10/27 08:20:44;;;;;;;29.67;18.10;;;15.50;99.90;;;;;;5069864;28;20537;-72
2022/10/27 08:23:16;;;;;;;23.73;18.05;;;15.60;99.90;;;;;;5069682;28;20056;-73
2022/10/27 08:25:42;;;;;;;24.95;18.13;;;15.50;99.90;;;;;;5069474;28;20024;-72
2022/10/27 08:28:10;;;;;;;30.88;18.77;;;15.30;99.90;;;;;;5069447;28;20029;-72
2022/10/27 08:30:36;;;;;;;29.60;18.88;;;15.30;99.90;;;;;;5068662;28;20027;-73
2022/10/27 08:33:04;;;;;;;29.90;18.58;;;15.10;99.90;;;;;;5068899;28;20355;-74
2022/10/27 08:35:32;;;;;;;28.48;19.67;;;15.20;99.90;;;;;;5069090;28;20035;-71
2022/10/27 08:38:12;;;;;;;25.88;19.48;;;15.30;99.90;;;;;;5068561;28;20065;-73
2022/10/27 08:41:03;;;;;;;27.98;19.58;;;15.40;99.90;;;;;;5068625;28;20045;-74
2022/10/27 08:43:38;;;;;;;27.27;20.23;;;15.60;99.90;;;;;;5070445;28;20119;-77
2022/10/27 08:46:39;;;;;;;27.52;19.77;;;15.70;99.90;;;;;;5069525;28;20025;-72
2022/10/27 08:49:13;;;;;;;28.55;21.13;;;16.00;99.90;;;;;;5066635;28;20531;-71
2022/10/27 08:51:41;;;;;;;29.02;21.88;;;16.00;99.90;;;;;;5066459;28;20035;-75
2022/10/27 08:54:09;;;;;;;27.95;21.60;;;16.20;99.90;;;;;;5065447;28;20029;-77
2022/10/27 08:56:40;;;;;;;28.67;20.77;;;16.50;99.90;;;;;;5066488;28;20028;-74
2022/10/27 08:59:13;;;;;;;29.85;21.52;;;16.60;99.90;;;;;;5066409;28;20131;-72
2022/10/27 09:01:58;;;;;;;32.50;23.08;;;16.70;99.90;;;;;;5064248;28;20120;-74
2022/10/27 09:05:02;;;;;;;29.40;20.35;;;16.90;99.90;;;;;;5061085;28;20029;-73
2022/10/27 09:07:36;;;;;;;26.52;19.40;;;17.00;99.90;;;;;;4950077;28;20043;-74
2022/10/27 09:10:24;;;;;;;32.05;21.00;;;17.10;99.90;;;;;;4961172;28;20055;-73
2022/10/27 09:13:18;;;;;;;30.30;19.25;;;17.10;99.90;;;;;;4928967;29;20036;-74
2022/10/27 09:15:50;;;;;;;32.67;21.13;;;17.60;99.90;;;;;;4930958;29;20027;-74
2022/10/27 09:18:25;;;;;;;26.38;20.42;;;17.70;99.90;;;;;;4930526;29;20130;-73
2022/10/27 09:20:56;;;;;;;27.45;20.10;;;18.00;99.90;;;;;;4931052;29;20127;-73
2022/10/27 09:23:37;;;;;;;26.95;19.15;;;18.30;99.90;;;;;;4923971;29;20128;-73
2022/10/27 09:26:02;;;;;;;26.48;17.75;;;18.40;99.90;;;;;;4928799;29;20036;-74
2022/10/27 09:28:33;;;;;;;32.85;20.58;;;18.40;99.90;;;;;;4930584;29;20028;-74
2022/10/27 09:31:01;;;;;;;33.35;19.73;;;18.50;99.90;;;;;;4932039;29;20036;-73
2022/10/27 09:33:31;;;;;;;26.70;19.15;;;18.50;99.90;;;;;;4918252;29;20032;-74
2022/10/27 09:35:58;;;;;;;26.65;18.85;;;18.70;99.90;;;;;;4934054;29;20398;-75
2022/10/27 09:38:27;;;;;;;32.38;19.88;;;18.70;99.90;;;;;;4933940;29;20059;-73
2022/10/27 09:40:53;;;;;;;25.27;19.33;;;18.70;99.90;;;;;;4933913;29;20035;-74
2022/10/27 09:43:22;;;;;;;27.25;18.25;;;18.80;99.90;;;;;;4971657;28;20034;-75
2022/10/27 09:45:58;;;;;;;24.98;17.73;;;18.90;99.90;;;;;;5011725;28;20041;-75
2022/10/27 09:48:25;;;;;;;25.17;18.63;;;18.90;99.90;;;;;;5009149;28;20033;-76
2022/10/27 09:51:05;;;;;;;26.63;17.60;;;19.00;99.90;;;;;;5062786;28;20044;-74
2022/10/27 09:53:43;;;;;;;25.35;17.00;;;19.10;99.90;;;;;;5063735;28;20036;-73
2022/10/27 09:56:13;;;;;;;27.10;17.98;;;19.10;99.90;;;;;;5065113;28;20167;-74
2022/10/27 09:58:57;;;;;;;26.20;16.00;;;19.30;99.90;;;;;;5059056;28;20121;-73
2022/10/27 10:01:48;;;;;;;25.45;16.08;;;19.30;99.90;;;;;;5066394;28;20036;-73
2022/10/27 10:04:31;;;;;;;26.05;16.70;;;19.10;99.90;;;;;;5063197;28;20044;-74
2022/10/27 10:07:02;;;;;;;24.58;15.93;;;19.00;99.90;;;;;;5070740;28;20040;-74
2022/10/27 10:09:40;;;;;;;24.95;16.83;;;19.10;99.90;;;;;;5064760;28;20061;-74
2022/10/27 10:12:24;;;;;;;29.08;17.20;;;19.30;99.90;;;;;;5067579;28;20033;-74
2022/10/27 10:14:51;;;;;;;25.90;15.57;;;19.60;99.90;;;;;;5058987;28;20072;-74
2022/10/27 10:17:27;;;;;;;24.95;15.52;;;19.70;99.90;;;;;;5066015;28;20505;-74
2022/10/27 10:19:56;;;;;;;20.98;15.27;;;19.60;99.90;;;;;;5070811;28;20044;-77
2022/10/27 10:22:33;;;;;;;21.10;14.25;;;19.50;99.90;;;;;;5069670;28;20033;-76
2022/10/27 10:25:13;;;;;;;25.15;15.02;;;19.60;99.90;;;;;;5070397;28;20071;-77
2022/10/27 10:28:00;;;;;;;19.67;13.07;;;19.70;99.90;;;;;;5068039;28;20040;-77
2022/10/27 10:30:26;;;;;;;22.88;14.00;;;19.90;99.90;;;;;;5070422;28;20029;-74
2022/10/27 10:32:55;;;;;;;22.58;12.85;;;19.90;99.90;;;;;;5070549;28;20093;-75
2022/10/27 10:35:42;;;;;;;21.00;12.52;;;19.90;99.90;;;;;;5070268;28;20059;-74
2022/10/27 10:38:23;;;;;;;21.83;13.05;;;20.10;99.90;;;;;;5067362;28;20052;-76
2022/10/27 10:41:08;;;;;;;17.15;10.65;;;20.00;99.90;;;;;;5059471;28;20049;-76
2022/10/27 10:43:34;;;;;;;21.10;13.00;;;20.10;99.90;;;;;;5067116;28;20020;-76
2022/10/27 10:46:00;;;;;;;19.40;12.95;;;20.20;99.90;;;;;;5072666;28;20123;-77
2022/10/27 10:48:31;;;;;;;29.85;12.75;;;20.20;99.90;;;;;;5068290;28;20108;-74
2022/10/27 10:50:57;;;;;;;20.08;12.15;;;20.30;99.90;;;;;;5063067;28;20067;-74
2022/10/27 10:53:41;;;;;;;19.65;12.82;;;20.50;99.90;;;;;;5061750;28;20033;-77
2022/10/27 10:56:35;;;;;;;18.90;13.02;;;20.60;99.90;;;;;;5072719;28;20667;-74
2022/10/27 10:59:06;;;;;;;20.50;12.55;;;20.50;99.90;;;;;;5070578;28;20143;-74
2022/10/27 11:01:57;;;;;;;22.30;12.82;;;20.20;99.90;;;;;;5071992;28;20021;-74
2022/10/27 11:04:27;;;;;;;19.20;12.98;;;20.20;99.90;;;;;;5064068;28;20025;-74
2022/10/27 11:07:21;;;;;;;18.20;12.48;;;20.30;99.90;;;;;;5058310;28;20056;-74
2022/10/27 11:10:11;;;;;;;25.25;11.18;;;20.40;99.90;;;;;;5063390;28;20057;-73
2022/10/27 11:12:45;;;;;;;17.65;10.40;;;20.40;99.90;;;;;;5065267;28;20025;-74
2022/10/27 11:15:31;;;;;;;18.50;10.05;;;20.30;99.90;;;;;;5066393;28;20032;-75
2022/10/27 11:18:01;;;;;;;18.20;9.65;;;20.50;99.90;;;;;;5061050;28;20032;-74
2022/10/27 11:20:32;;;;;;;16.25;10.15;;;20.40;99.90;;;;;;5071777;28;20372;-73
2022/10/27 11:23:02;;;;;;;15.73;10.07;;;20.20;99.90;;;;;;5071734;28;20032;-74
2022/10/27 11:25:33;;;;;;;19.10;11.57;;;20.30;99.90;;;;;;5071429;28;20116;-75
2022/10/27 11:28:04;;;;;;;16.63;10.15;;;20.30;99.90;;;;;;5071632;28;20107;-74
2022/10/27 11:30:34;;;;;;;16.55;10.45;;;20.40;99.90;;;;;;5068271;28;20032;-74
2022/10/27 11:33:06;;;;;;;17.33;10.60;;;20.50;99.90;;;;;;5064635;28;20087;-74
2022/10/27 11:35:38;;;;;;;20.38;12.10;;;20.60;99.90;;;;;;5064918;28;20418;-74
2022/10/27 11:38:04;;;;;;;18.83;11.60;;;20.70;99.90;;;;;;5067853;28;20053;-76
2022/10/27 11:41:02;;;;;;;20.50;11.52;;;20.70;99.90;;;;;;5071471;28;20050;-74
2022/10/27 11:43:39;;;;;;;19.75;11.85;;;20.80;99.90;;;;;;5071151;28;20059;-74
2022/10/27 11:46:18;;;;;;;19.50;11.85;;;20.80;99.90;;;;;;5070906;28;20389;-74
2022/10/27 11:48:53;;;;;;;18.02;11.57;;;20.80;99.90;;;;;;5057809;28;20522;-75
2022/10/27 11:51:22;;;;;;;19.67;11.93;;;20.80;99.90;;;;;;5071374;28;20033;-74
2022/10/27 11:53:50;;;;;;;21.05;11.68;;;20.70;99.90;;;;;;5069656;28;20020;-74
2022/10/27 11:56:33;;;;;;;20.35;11.38;;;20.70;99.90;;;;;;5071291;28;20086;-73
2022/10/27 11:59:19;;;;;;;20.67;10.75;;;20.80;99.90;;;;;;5071006;28;20134;-73
2022/10/27 12:02:00;;;;;;;15.93;9.05;;;20.70;99.90;;;;;;5071163;28;20028;-74
2022/10/27 12:04:31;;;;;;;17.25;9.52;;;20.80;99.90;;;;;;5070977;28;20090;-74
2022/10/27 12:07:10;;;;;;;14.85;7.28;;;20.80;99.90;;;;;;5070939;28;20042;-73
2022/10/27 12:09:59;;;;;;;22.38;10.57;;;20.80;99.90;;;;;;5071406;28;20025;-74
2022/10/27 12:12:40;;;;;;;15.15;9.20;;;20.90;99.90;;;;;;5065444;28;20047;-74
2022/10/27 12:15:25;;;;;;;19.75;9.45;;;20.90;99.90;;;;;;5064877;28;20028;-74
2022/10/27 12:18:34;;;;;;;14.55;8.18;;;20.90;99.90;;;;;;5059530;28;20040;-74
2022/10/27 12:21:29;;;;;;;14.32;7.00;;;21.00;99.90;;;;;;4966781;28;20041;-74
2022/10/27 12:24:03;;;;;;;13.30;6.85;;;21.00;99.90;;;;;;4978726;28;20042;-74
2022/10/27 12:26:41;;;;;;;11.63;6.93;;;21.00;99.90;;;;;;4984696;28;20046;-74
2022/10/27 12:29:09;;;;;;;15.32;7.28;;;21.00;99.90;;;;;;4984897;28;20547;-74
2022/10/27 12:31:41;;;;;;;16.40;8.23;;;21.00;99.90;;;;;;4983634;28;20066;-74
2022/10/27 12:34:12;;;;;;;14.95;7.57;;;21.10;99.90;;;;;;4987849;28;20038;-74
2022/10/27 12:37:00;;;;;;;13.77;7.70;;;21.10;99.90;;;;;;4987047;28;20045;-74
2022/10/27 12:39:49;;;;;;;18.60;8.50;;;21.10;99.90;;;;;;4988261;28;20547;-74
2022/10/27 12:42:43;;;;;;;15.25;7.38;;;21.10;99.90;;;;;;4987423;28;20073;-74
2022/10/27 12:45:46;;;;;;;16.33;8.55;;;21.10;99.90;;;;;;4984084;28;20042;-73
2022/10/27 12:48:38;;;;;;;12.43;5.90;;;21.20;99.90;;;;;;4986711;28;20034;-73